createdAt,value
2019-03-04T00:02:15.693Z,80.02
2019-03-04T00:04:46.395Z,80.12
2019-03-04T00:07:17.947Z,80.08
2019-03-04T00:09:49.630Z,80.37
2019-03-04T00:12:19.928Z,80.36
2019-03-04T00:14:51.909Z,79.97
2019-03-04T00:17:23.244Z,80.32
2019-03-04T00:19:53.778Z,80.67
2019-03-04T00:22:24.979Z,80.25
2019-03-04T00:24:55.467Z,79.97
2019-03-04T00:27:26.808Z,80.27
2019-03-04T00:29:58.165Z,80.26
2019-03-04T00:32:28.693Z,80.23
2019-03-04T00:34:59.021Z,80.15
2019-03-04T00:37:29.448Z,80.02
2019-03-04T00:39:59.720Z,79.86
2019-03-04T00:42:30.953Z,79.91
2019-03-04T00:45:01.359Z,79.84
2019-03-04T00:47:33.634Z,79.76
2019-03-04T00:50:06.171Z,79.66
2019-03-04T00:52:37.361Z,79.95
2019-03-04T00:55:08.205Z,79.57
2019-03-04T00:57:39.590Z,79.46
2019-03-04T01:00:17.152Z,79.46
2019-03-04T01:02:47.838Z,79.30
2019-03-04T01:05:18.625Z,79.14
2019-03-04T01:07:49.156Z,79.11
2019-03-04T01:10:19.592Z,79.08
2019-03-04T01:12:50.023Z,79.25
2019-03-04T01:15:24.256Z,79.05
2019-03-04T01:17:54.643Z,78.66
2019-03-04T01:20:26.223Z,78.78
2019-03-04T01:22:56.943Z,78.66
2019-03-04T01:25:27.467Z,78.46
2019-03-04T01:27:57.987Z,78.15
2019-03-04T01:30:30.005Z,78.11
2019-03-04T01:33:01.555Z,77.82
2019-03-04T01:35:31.876Z,77.51
2019-03-04T01:38:02.411Z,77.19
2019-03-04T01:40:32.962Z,76.91
2019-03-04T01:43:05.114Z,76.81
2019-03-04T01:45:36.770Z,76.93
2019-03-04T01:48:07.100Z,76.70
2019-03-04T01:50:38.478Z,77.05
2019-03-04T01:53:08.824Z,77.04
2019-03-04T01:55:41.976Z,77.33
2019-03-04T01:58:13.431Z,77.12
2019-03-04T02:00:44.985Z,77.39
2019-03-04T02:03:15.292Z,77.18
2019-03-04T02:05:46.564Z,77.17
2019-03-04T02:08:18.634Z,77.39
2019-03-04T02:10:51.705Z,77.11
2019-03-04T02:13:22.166Z,76.98
2019-03-04T02:15:53.539Z,77.11
2019-03-04T02:18:25.608Z,76.91
2019-03-04T02:20:55.903Z,76.62
2019-03-04T02:23:26.326Z,76.78
2019-03-04T02:26:29.635Z,76.58
2019-03-04T02:29:00.353Z,76.76
2019-03-04T02:31:30.763Z,76.88
2019-03-04T02:34:01.524Z,77.00
2019-03-04T02:36:31.851Z,77.02
2019-03-04T02:39:04.324Z,76.87
2019-03-04T02:41:34.445Z,76.78
2019-03-04T02:44:06.929Z,76.80
2019-03-04T02:46:38.953Z,76.63
2019-03-04T02:49:09.217Z,76.26
2019-03-04T02:51:39.991Z,76.20
2019-03-04T02:54:11.533Z,76.64
2019-03-04T02:56:42.756Z,76.16
2019-03-04T02:59:13.191Z,75.82
2019-03-04T03:01:43.457Z,75.77
2019-03-04T03:04:14.899Z,75.44
2019-03-04T03:06:45.306Z,75.55
2019-03-04T03:09:16.612Z,75.18
2019-03-04T03:11:47.105Z,75.75
2019-03-04T03:14:17.416Z,75.53
2019-03-04T03:16:47.889Z,75.07
2019-03-04T03:19:18.799Z,75.17
2019-03-04T03:21:49.178Z,75.00
2019-03-04T03:24:19.572Z,75.03
2019-03-04T03:26:50.092Z,75.17
2019-03-04T03:29:20.547Z,74.83
2019-03-04T03:31:50.951Z,74.97
2019-03-04T03:34:21.653Z,74.85
2019-03-04T03:36:53.439Z,75.14
2019-03-04T03:39:24.908Z,74.78
2019-03-04T03:41:56.130Z,74.83
2019-03-04T03:44:27.401Z,74.96
2019-03-04T03:47:00.292Z,74.75
2019-03-04T03:49:30.720Z,74.45
2019-03-04T03:52:03.299Z,74.62
2019-03-04T03:54:34.826Z,74.34
2019-03-04T03:57:06.930Z,74.29
2019-03-04T03:59:39.906Z,74.13
2019-03-04T04:02:11.742Z,73.82
2019-03-04T04:04:42.105Z,73.89
2019-03-04T04:07:15.195Z,73.77
2019-03-04T04:09:46.324Z,73.85
2019-03-04T04:12:17.060Z,73.76
2019-03-04T04:14:48.951Z,73.80
2019-03-04T04:17:20.186Z,73.92
2019-03-04T04:19:52.903Z,74.05
2019-03-04T04:22:22.909Z,73.67
2019-03-04T04:24:56.398Z,73.39
2019-03-04T04:27:26.814Z,73.01
2019-03-04T04:29:58.800Z,72.72
2019-03-04T04:32:30.151Z,73.01
2019-03-04T04:35:02.319Z,73.16
2019-03-04T04:37:33.479Z,73.04
2019-03-04T04:40:05.290Z,73.22
2019-03-04T04:42:35.676Z,73.39
2019-03-04T04:45:06.407Z,73.74
2019-03-04T04:47:38.770Z,73.54
2019-03-04T04:50:11.931Z,73.08
2019-03-04T04:52:42.579Z,72.50
2019-03-04T04:55:12.927Z,72.37
2019-03-04T04:57:47.516Z,72.65
2019-03-04T05:00:20.545Z,72.94
2019-03-04T05:02:51.286Z,72.84
2019-03-04T05:05:24.312Z,72.94
2019-03-04T05:07:55.316Z,73.08
2019-03-04T05:10:25.836Z,72.89
2019-03-04T05:12:57.818Z,73.00
2019-03-04T05:15:29.612Z,73.24
2019-03-04T05:18:00.446Z,72.97
2019-03-04T05:20:30.818Z,72.97
2019-03-04T05:23:03.223Z,73.06
2019-03-04T05:25:33.688Z,72.88
2019-03-04T05:28:04.065Z,72.69
2019-03-04T05:30:34.534Z,72.76
2019-03-04T05:33:06.794Z,72.41
2019-03-04T05:35:38.243Z,72.40
2019-03-04T05:38:10.232Z,72.14
2019-03-04T05:40:40.700Z,72.35
2019-03-04T05:43:11.235Z,72.46
2019-03-04T05:45:41.768Z,72.21
2019-03-04T05:48:13.365Z,72.13
2019-03-04T05:50:45.664Z,71.94
2019-03-04T05:53:17.795Z,71.78
2019-03-04T05:55:48.082Z,71.74
2019-03-04T05:58:20.307Z,71.76
2019-03-04T06:01:22.268Z,71.45
2019-03-04T06:03:54.731Z,71.51
2019-03-04T06:06:43.079Z,71.38
2019-03-04T06:09:15.241Z,71.07
2019-03-04T06:11:45.773Z,71.15
2019-03-04T06:14:16.426Z,70.83
2019-03-04T06:16:49.772Z,70.98
2019-03-04T06:19:21.270Z,70.39
2019-03-04T06:21:51.798Z,70.11
2019-03-04T06:24:22.226Z,70.05
2019-03-04T06:26:54.705Z,69.80
2019-03-04T06:29:27.510Z,69.90
2019-03-04T06:31:59.658Z,69.93
2019-03-04T06:34:30.194Z,70.12
2019-03-04T06:37:00.519Z,69.71
2019-03-04T06:39:31.260Z,69.47
2019-03-04T06:42:02.613Z,69.18
2019-03-04T06:44:33.247Z,68.61
2019-03-04T06:47:05.519Z,68.52
2019-03-04T06:49:38.580Z,67.42
2019-03-04T06:52:08.876Z,66.90
2019-03-04T06:55:27.195Z,65.90
2019-03-04T06:57:57.941Z,65.58
2019-03-04T07:01:02.201Z,65.25
2019-03-04T07:03:42.854Z,65.26
2019-03-04T07:06:14.839Z,64.74
2019-03-04T07:09:16.969Z,64.64
2019-03-04T07:11:49.117Z,64.41
2019-03-04T07:14:20.814Z,64.10
2019-03-04T07:16:52.922Z,64.14
2019-03-04T07:19:33.550Z,64.45
2019-03-04T07:22:03.956Z,64.73
2019-03-04T07:24:53.654Z,64.42
2019-03-04T07:27:24.921Z,64.42
2019-03-04T07:29:55.359Z,64.74
2019-03-04T07:32:25.436Z,64.98
2019-03-04T07:34:55.588Z,64.88
2019-03-04T07:37:25.993Z,64.86
2019-03-04T07:39:56.403Z,64.53
2019-03-04T07:42:31.269Z,64.53
2019-03-04T07:45:01.944Z,63.70
2019-03-04T07:47:32.202Z,61.97
2019-03-04T07:50:03.781Z,62.53
2019-03-04T07:52:36.069Z,62.96
2019-03-04T07:55:06.390Z,62.63
2019-03-04T07:57:38.564Z,62.98
2019-03-04T08:00:09.463Z,62.26
2019-03-04T08:02:41.167Z,59.81
2019-03-04T08:05:11.902Z,59.63
2019-03-04T08:07:48.937Z,56.35
2019-03-04T08:11:02.607Z,57.61
2019-03-04T08:13:48.502Z,56.64
2019-03-04T08:16:18.929Z,52.76
2019-03-04T08:18:49.355Z,53.68
2019-03-04T08:21:20.090Z,56.33
2019-03-04T08:23:51.434Z,57.13
2019-03-04T08:26:23.607Z,57.39
2019-03-04T08:28:54.241Z,58.17
2019-03-04T08:31:24.671Z,58.44
2019-03-04T08:33:56.339Z,59.48
2019-03-04T08:36:26.763Z,59.33
2019-03-04T08:38:57.196Z,60.30
2019-03-04T08:41:27.419Z,69.76
2019-03-04T08:43:57.752Z,71.16
2019-03-04T08:46:28.179Z,72.50
2019-03-04T08:48:59.374Z,73.56
2019-03-04T08:51:30.883Z,74.30
2019-03-04T08:54:02.171Z,73.91
2019-03-04T08:56:32.498Z,74.29
2019-03-04T08:59:04.429Z,74.99
2019-03-04T09:01:35.852Z,75.57
2019-03-04T09:04:06.618Z,75.97
2019-03-04T09:06:39.198Z,75.72
2019-03-04T09:09:10.654Z,75.05
2019-03-04T09:11:41.055Z,74.19
2019-03-04T09:14:11.724Z,74.29
2019-03-04T09:16:43.625Z,73.66
2019-03-04T09:19:15.071Z,73.07
2019-03-04T09:21:45.468Z,70.75
2019-03-04T09:24:15.797Z,70.68
2019-03-04T09:26:46.286Z,69.74
2019-03-04T09:29:16.749Z,67.75
2019-03-04T09:31:47.284Z,65.23
2019-03-04T09:34:17.621Z,67.27
2019-03-04T09:36:49.690Z,65.18
2019-03-04T09:39:21.287Z,65.64
2019-03-04T09:41:56.513Z,66.33
2019-03-04T09:44:26.791Z,66.83
2019-03-04T09:46:58.924Z,67.04
2019-03-04T09:49:29.173Z,67.03
2019-03-04T09:52:01.215Z,66.44
2019-03-04T09:54:33.353Z,66.06
2019-03-04T09:57:04.500Z,66.45
2019-03-04T09:59:37.177Z,67.22
2019-03-04T10:02:19.479Z,66.56
2019-03-04T10:05:41.182Z,66.82
2019-03-04T10:09:04.834Z,65.85
2019-03-04T10:12:57.430Z,63.75
2019-03-04T10:16:04.600Z,62.96
2019-03-04T10:19:09.541Z,62.63
2019-03-04T10:22:11.276Z,63.04
2019-03-04T10:25:38.704Z,62.62
2019-03-04T10:29:03.871Z,61.83
2019-03-04T10:32:39.957Z,61.66
2019-03-04T10:36:18.896Z,62.24
2019-03-04T10:39:35.629Z,61.94
2019-03-04T10:42:45.918Z,62.09
2019-03-04T10:45:59.436Z,61.54
2019-03-04T10:48:30.822Z,61.42
2019-03-04T10:51:02.145Z,60.31
2019-03-04T10:53:32.368Z,59.51
2019-03-04T10:56:04.117Z,58.01
2019-03-04T10:58:34.806Z,58.59
2019-03-04T11:01:06.452Z,55.73
2019-03-04T11:03:36.644Z,54.41
2019-03-04T11:06:09.326Z,54.56
2019-03-04T11:08:40.371Z,53.45
2019-03-04T11:11:13.027Z,51.72
2019-03-04T11:13:43.943Z,51.06
2019-03-04T11:16:14.636Z,50.90
2019-03-04T11:18:47.420Z,50.88
2019-03-04T11:21:17.732Z,49.83
2019-03-04T11:23:49.205Z,49.28
2019-03-04T11:26:22.474Z,49.16
2019-03-04T11:28:54.009Z,50.22
2019-03-04T11:31:24.431Z,48.98
2019-03-04T11:33:54.976Z,49.30
2019-03-04T11:36:28.143Z,49.13
2019-03-04T11:39:10.308Z,49.79
2019-03-04T11:41:40.842Z,50.68
2019-03-04T11:44:12.958Z,50.72
2019-03-04T11:46:44.989Z,49.97
2019-03-04T11:49:16.737Z,49.92
2019-03-04T11:51:48.636Z,48.98
2019-03-04T11:54:20.182Z,48.94
2019-03-04T11:56:51.479Z,48.67
2019-03-04T11:59:21.632Z,48.92
2019-03-04T12:01:53.687Z,48.65
2019-03-04T12:04:25.064Z,49.26
2019-03-04T12:06:55.675Z,49.84
2019-03-04T12:09:26.222Z,51.72
2019-03-04T12:11:56.441Z,53.37
2019-03-04T12:14:27.714Z,57.86
2019-03-04T12:16:58.968Z,62.29
2019-03-04T12:19:32.563Z,63.11
2019-03-04T12:22:04.069Z,65.17
2019-03-04T12:24:34.437Z,64.66
2019-03-04T12:27:05.793Z,63.78
2019-03-04T12:29:36.337Z,63.92
2019-03-04T12:32:28.957Z,61.59
2019-03-04T12:35:00.820Z,60.81
2019-03-04T12:37:32.638Z,59.12
2019-03-04T12:40:04.839Z,57.63
2019-03-04T12:42:35.146Z,58.33
2019-03-04T12:45:08.867Z,59.15
2019-03-04T12:47:40.761Z,58.96
2019-03-04T12:50:15.007Z,59.15
2019-03-04T12:52:45.921Z,59.06
2019-03-04T12:55:16.336Z,58.80
2019-03-04T12:57:48.754Z,57.37
2019-03-04T13:00:20.891Z,57.77
2019-03-04T13:02:57.723Z,57.59
2019-03-04T13:05:24.952Z,57.31
2019-03-04T13:07:55.322Z,57.55
2019-03-04T13:10:27.730Z,57.14
2019-03-04T13:12:59.288Z,57.23
2019-03-04T13:15:29.516Z,57.74
2019-03-04T13:18:02.652Z,57.84
2019-03-04T13:20:34.475Z,59.96
2019-03-04T13:23:07.027Z,61.57
2019-03-04T13:25:37.810Z,62.37
2019-03-04T13:28:08.812Z,69.01
2019-03-04T13:30:41.723Z,79.97
2019-03-04T13:33:12.133Z,79.18
2019-03-04T13:35:42.935Z,81.14
2019-03-04T13:38:13.315Z,82.53
2019-03-04T13:40:43.660Z,83.58
2019-03-04T13:43:20.327Z,83.67
2019-03-04T13:45:51.812Z,83.83
2019-03-04T13:48:22.253Z,84.08
2019-03-04T13:50:52.753Z,83.83
2019-03-04T13:53:23.069Z,84.11
2019-03-04T13:55:55.863Z,83.28
2019-03-04T13:58:26.267Z,82.23
2019-03-04T14:00:58.405Z,82.87
2019-03-04T14:03:29.860Z,82.76
2019-03-04T14:06:00.021Z,82.33
2019-03-04T14:08:30.676Z,80.84
2019-03-04T14:11:03.170Z,81.57
2019-03-04T14:13:33.595Z,79.27
2019-03-04T14:16:04.287Z,78.23
2019-03-04T14:18:34.761Z,77.57
2019-03-04T14:21:05.257Z,78.30
2019-03-04T14:23:35.703Z,78.16
2019-03-04T14:26:05.945Z,75.68
2019-03-04T14:28:36.074Z,75.31
2019-03-04T14:31:06.107Z,75.77
2019-03-04T14:33:37.522Z,74.64
2019-03-04T14:36:07.903Z,73.90
2019-03-04T14:38:38.381Z,74.26
2019-03-04T14:41:08.746Z,74.26
2019-03-04T14:43:38.835Z,73.50
2019-03-04T14:46:20.418Z,73.37
2019-03-04T14:48:50.641Z,74.07
2019-03-04T14:51:21.090Z,72.95
2019-03-04T14:53:51.623Z,72.51
2019-03-04T14:56:23.906Z,71.65
2019-03-04T14:59:09.720Z,71.94
2019-03-04T15:01:26.811Z,72.51
2019-03-04T15:03:57.156Z,72.10
2019-03-04T15:06:27.440Z,70.97
2019-03-04T15:08:58.276Z,70.79
2019-03-04T15:11:28.625Z,70.55
2019-03-04T15:14:00.075Z,70.66
2019-03-04T15:16:32.262Z,70.16
2019-03-04T15:19:02.785Z,69.71
2019-03-04T15:21:34.143Z,70.51
2019-03-04T15:24:06.565Z,69.88
2019-03-04T15:26:43.881Z,70.37
2019-03-04T15:29:10.665Z,69.48
2019-03-04T15:31:41.064Z,68.77
2019-03-04T15:34:11.548Z,68.92
2019-03-04T15:36:41.832Z,68.46
2019-03-04T15:39:22.984Z,68.77
2019-03-04T15:41:50.365Z,68.80
2019-03-04T15:44:23.063Z,67.79
2019-03-04T15:46:53.398Z,67.96
2019-03-04T15:49:25.077Z,68.43
2019-03-04T15:51:55.275Z,68.10
2019-03-04T15:54:27.037Z,68.67
2019-03-04T15:57:03.357Z,69.28
2019-03-04T15:59:34.350Z,68.31
2019-03-04T16:02:08.316Z,67.72
2019-03-04T16:04:40.476Z,66.56
2019-03-04T16:07:12.212Z,66.49
2019-03-04T16:09:44.376Z,67.29
2019-03-04T16:12:18.011Z,66.68
2019-03-04T16:14:49.376Z,66.80
2019-03-04T16:17:19.837Z,66.31
2019-03-04T16:19:50.374Z,66.25
2019-03-04T16:22:20.735Z,66.05
2019-03-04T16:24:52.612Z,65.09
2019-03-04T16:27:25.791Z,64.89
2019-03-04T16:29:59.064Z,64.05
2019-03-04T16:32:30.012Z,64.32
2019-03-04T16:35:00.568Z,65.59
2019-03-04T16:37:32.709Z,65.52
2019-03-04T16:40:03.500Z,65.12
2019-03-04T16:42:35.577Z,65.62
2019-03-04T16:45:07.015Z,65.90
2019-03-04T16:47:39.521Z,65.59
2019-03-04T16:50:11.793Z,65.56
2019-03-04T16:52:43.714Z,65.42
2019-03-04T16:55:15.654Z,65.12
2019-03-04T16:57:46.014Z,64.75
2019-03-04T17:00:18.769Z,63.79
2019-03-04T17:02:50.534Z,64.54
2019-03-04T17:05:22.533Z,64.74
2019-03-04T17:07:53.162Z,64.08
2019-03-04T17:10:23.966Z,63.72
2019-03-04T17:12:55.209Z,63.69
2019-03-04T17:15:25.569Z,64.19
2019-03-04T17:17:56.168Z,63.53
2019-03-04T17:20:26.566Z,64.55
2019-03-04T17:22:59.193Z,63.50
2019-03-04T17:25:29.544Z,63.41
2019-03-04T17:28:01.038Z,63.83
2019-03-04T17:30:32.498Z,63.98
2019-03-04T17:33:02.857Z,64.48
2019-03-04T17:35:33.480Z,64.62
2019-03-04T17:38:05.563Z,65.47
2019-03-04T17:40:35.860Z,64.79
2019-03-04T17:43:06.408Z,65.43
2019-03-04T17:45:36.906Z,65.01
2019-03-04T17:48:07.742Z,65.33
2019-03-04T17:50:40.647Z,65.30
2019-03-04T17:53:14.698Z,64.77
2019-03-04T17:55:46.107Z,65.40
2019-03-04T17:58:16.433Z,65.19
2019-03-04T18:00:51.515Z,65.49
2019-03-04T18:03:24.205Z,65.61
2019-03-04T18:05:56.060Z,65.86
2019-03-04T18:08:26.382Z,65.23
2019-03-04T18:10:56.822Z,65.78
2019-03-04T18:13:27.362Z,65.84
2019-03-04T18:15:58.185Z,65.35
2019-03-04T18:18:28.728Z,65.24
2019-03-04T18:21:02.914Z,64.80
2019-03-04T18:23:33.807Z,64.57
2019-03-04T18:26:14.265Z,64.45
2019-03-04T18:29:53.756Z,63.51
2019-03-04T18:33:40.443Z,63.02
2019-03-04T18:36:59.673Z,63.03
2019-03-04T18:40:37.177Z,63.16
2019-03-04T18:44:11.619Z,63.72
2019-03-04T18:47:32.012Z,63.04
2019-03-04T18:50:02.437Z,63.84
2019-03-04T18:52:34.078Z,63.66
2019-03-04T18:55:05.025Z,63.83
2019-03-04T18:57:37.293Z,64.22
2019-03-04T19:00:14.077Z,64.27
2019-03-04T19:02:52.597Z,63.97
2019-03-04T19:05:25.070Z,63.87
2019-03-04T19:07:56.826Z,64.16
2019-03-04T19:10:28.070Z,64.26
2019-03-04T19:13:01.125Z,64.42
2019-03-04T19:15:31.959Z,64.75
2019-03-04T19:18:02.723Z,64.83
2019-03-04T19:20:34.812Z,65.10
2019-03-04T19:23:05.220Z,65.17
2019-03-04T19:25:36.729Z,65.26
2019-03-04T19:28:07.108Z,65.23
2019-03-04T19:30:39.294Z,65.36
2019-03-04T19:33:09.521Z,65.48
2019-03-04T19:35:40.230Z,65.65
2019-03-04T19:38:10.845Z,65.47
2019-03-04T19:40:41.434Z,65.86
2019-03-04T19:43:11.846Z,65.67
2019-03-04T19:45:43.016Z,65.89
2019-03-04T19:48:15.452Z,65.72
2019-03-04T19:50:46.604Z,65.34
2019-03-04T19:53:17.641Z,65.07
2019-03-04T19:55:48.490Z,64.71
2019-03-04T19:58:19.502Z,64.69
2019-03-04T20:00:52.338Z,64.63
2019-03-04T20:03:22.850Z,64.73
2019-03-04T20:05:54.272Z,64.65
2019-03-04T20:08:24.970Z,64.87
2019-03-04T20:10:58.806Z,65.13
2019-03-04T20:13:31.569Z,65.41
2019-03-04T20:16:05.600Z,65.38
2019-03-04T20:18:38.510Z,65.38
2019-03-04T20:21:09.716Z,65.42
2019-03-04T20:23:40.342Z,65.24
2019-03-04T20:26:13.234Z,65.39
2019-03-04T20:28:44.765Z,65.02
2019-03-04T20:31:16.756Z,65.39
2019-03-04T20:33:47.711Z,65.35
2019-03-04T20:36:19.868Z,64.97
2019-03-04T20:38:50.953Z,65.14
2019-03-04T20:41:21.575Z,65.34
2019-03-04T20:43:55.300Z,64.81
2019-03-04T20:46:25.895Z,64.83
2019-03-04T20:48:56.282Z,65.40
2019-03-04T20:51:26.901Z,65.48
2019-03-04T20:53:57.556Z,65.39
2019-03-04T20:56:27.985Z,65.79
2019-03-04T20:58:59.212Z,66.11
2019-03-04T21:01:29.913Z,65.83
2019-03-04T21:04:01.984Z,65.87
2019-03-04T21:06:33.489Z,65.93
2019-03-04T21:09:06.163Z,66.05
2019-03-04T21:11:36.577Z,65.56
2019-03-04T21:14:07.219Z,65.47
2019-03-04T21:16:38.051Z,65.18
2019-03-04T21:19:10.702Z,65.08
2019-03-04T21:21:41.362Z,65.23
2019-03-04T21:24:11.751Z,65.26
2019-03-04T21:26:49.005Z,64.95
2019-03-04T21:30:07.893Z,64.95
2019-03-04T21:33:07.179Z,65.44
2019-03-04T21:36:36.785Z,65.00
2019-03-04T21:39:07.677Z,64.63
2019-03-04T21:41:59.909Z,64.57
2019-03-04T21:45:33.637Z,64.14
2019-03-04T21:48:37.596Z,64.36
2019-03-04T21:51:41.498Z,64.70
2019-03-04T21:54:13.726Z,64.52
2019-03-04T21:57:32.086Z,64.87
2019-03-04T22:00:04.229Z,64.93
2019-03-04T22:02:52.210Z,65.31
2019-03-04T22:05:24.482Z,65.66
2019-03-04T22:07:54.651Z,65.36
2019-03-04T22:10:24.743Z,65.50
2019-03-04T22:12:57.206Z,65.89
2019-03-04T22:15:27.532Z,66.13
2019-03-04T22:17:59.088Z,65.32
2019-03-04T22:20:29.507Z,65.32
2019-03-04T22:23:00.154Z,65.48
2019-03-04T22:25:30.889Z,65.29
2019-03-04T22:28:01.900Z,65.16
2019-03-04T22:30:34.656Z,65.38
2019-03-04T22:33:06.405Z,65.21
2019-03-04T22:35:36.897Z,64.93
2019-03-04T22:38:07.641Z,64.72
2019-03-04T22:40:37.981Z,65.13
2019-03-04T22:43:08.515Z,64.99
2019-03-04T22:45:41.207Z,64.68
2019-03-04T22:48:11.610Z,64.59
2019-03-04T22:50:42.199Z,64.65
2019-03-04T22:53:12.557Z,64.21
2019-03-04T22:55:44.903Z,63.66
2019-03-04T22:58:27.814Z,63.78
2019-03-04T23:01:38.438Z,63.73
2019-03-04T23:04:23.988Z,63.74
2019-03-04T23:07:35.573Z,64.05
2019-03-04T23:10:37.351Z,64.18
2019-03-04T23:14:00.845Z,63.73
2019-03-04T23:16:33.423Z,63.85
2019-03-04T23:19:09.688Z,64.18
2019-03-04T23:21:42.885Z,64.30
2019-03-04T23:24:13.108Z,64.60
2019-03-04T23:26:43.566Z,64.67
2019-03-04T23:29:17.456Z,65.30
2019-03-04T23:31:49.543Z,65.40
2019-03-04T23:34:19.864Z,65.82
2019-03-04T23:36:51.335Z,66.02
2019-03-04T23:39:22.856Z,66.41
2019-03-04T23:41:54.666Z,66.63
2019-03-04T23:44:25.971Z,67.23
2019-03-04T23:46:57.882Z,67.08
2019-03-04T23:49:30.067Z,67.69
2019-03-04T23:52:03.300Z,67.58
2019-03-04T23:54:33.787Z,67.60
2019-03-04T23:57:03.957Z,67.44
2019-03-04T23:59:34.878Z,67.73
